Tiempo atmosférico en la estación meteorológica de Zafra, Badajoz (433 m.)



Fecha
DESCASC
Temp. máxima en grados centígrados (hora)
DESCASC
Temp. mínima en grados centígrados (hora)
DESCASC
Temp. media en grados centígrados
DESCASC
Racha de viento máxima en m/sg (hora)
DESCASC
Velocidad máxima media en intervalos de 10 minutos(hora)
DESCASC
Precipitaciones diarias en mm
DESCASC
Precipitaciones de 00:00 a 06:00 en mm
DESCASC
Precipitaciones de 06:00 a 12:00 en mm
DESCASC
Precipitaciones de 12:00 a 18:00 en mm
DESCASC
Precipitaciones de 18:00 a 24:00 en mm
DESCASC
15-08-2019 37 (17:00) 17 (07:40) 27 11.67 (18:40) 5 (18:50) 0 0 0 0 0
14-08-2019 35.2 (17:10) 13.9 (00:00) 24.6 8.61 (16:50) 4.72 (16:50) 0 0 0 0 0
13-08-2019 33.2 (17:20) 11.1 (00:00) 22.2 8.06 (18:20) 4.72 (20:30) 0 0 0 0 0
12-08-2019 28.9 (17:30) 11.7 (00:00) 20.3 11.11 (13:40) 6.11 (00:20) 0 0 0 0 0
11-08-2019 27.3 (17:00) 14.9 (00:00) 21.1 12.78 (15:20) 7.22 (15:00) 0 0 0 0 0
10-08-2019 31.7 (17:30) 15.2 (00:00) 23.5 9.44 (19:20) 6.39 (21:30) 0 0 0 0 0
09-08-2019 31.8 (16:20) 19.8 (00:00) 25.8 9.17 (16:40) 6.94 (16:40) 0 0 0 0 0
08-08-2019 35.2 (16:20) 16.3 (00:00) 25.8 8.89 (18:10) 5.83 (23:30) 0 0 0 0 0
07-08-2019 27.7 (20:10) 18.6 (00:00) 23.2 7.5 (13:00) 4.72 (12:20) 0 0 0 0 0
06-08-2019 35.2 (17:20) 16.6 (00:00) 25.9 9.17 (22:20) 5 (22:20) 0 0 0 0 0
05-08-2019 36.1 (16:00) 15.8 (00:00) 25.9 8.33 (14:40) 5 (17:20) 0 0 0 0 0
04-08-2019 35.1 (17:40) 16.2 (00:00) 25.6 9.17 (14:00) 5 (21:30) 0 0 0 0 0
03-08-2019 35.2 (17:20) 16.9 (00:00) 26.1 8.61 (20:20) 4.17 (20:10) 0 0 0 0 0
02-08-2019 34.3 (17:40) 13.2 (00:00) 23.7 7.78 (18:10) 5 (17:00) 0 0 0 0 0
01-08-2019 34.3 (17:00) 18.6 (00:00) 26.4 8.89 (23:40) 5.28 (20:40) 0 0 0 0 0
31-07-2019 35.3 (18:40) 12.4 (00:00) 23.8 10.56 (21:40) 5.56 (21:50) 0 0 0 0 0
30-07-2019 30.9 (17:40) 11.8 (00:00) 21.3 10.28 (13:20) 6.11 (00:30) 0 0 0 0 0
29-07-2019 30.6 (17:20) 13.8 (00:00) 22.2 11.39 (19:20) 6.94 (18:10) 0 0 0 0 0
28-07-2019 31.2 (19:20) 14.2 (00:00) 22.7 7.78 (16:50) 5 (21:10) 0 0 0 0 0
27-07-2019 25 (19:50) 14.9 (00:00) 19.9 11.11 (14:20) 5.56 (00:40) 0.4 0 0 0 0.4
26-07-2019 28.6 (17:40) 14.8 (00:00) 21.7 11.39 (16:00) 6.67 (18:00) 0 0 0 0 0
25-07-2019 35 (16:50) 18.9 (00:00) 26.9 10.56 (23:00) 7.22 (23:00) 0 0 0 0 0
24-07-2019 38.3 (16:40) 20.8 (00:00) 29.5 10.83 (14:20) 5 (14:20) 0 0 0 0 0
23-07-2019 37.5 (17:10) 21.8 (00:00) 29.6 10.83 (14:00) 5.83 (17:30) 0 0 0 0 0
22-07-2019 39.3 (18:00) 21.8 (00:00) 30.5 9.17 (19:30) 5 (19:30) 0 0 0 0 0
21-07-2019 37.8 (18:00) 18.8 (00:00) 28.3 9.17 (18:50) 5.28 (20:00) 0 0 0 0 0
20-07-2019 37.3 (17:10) 21.1 (00:00) 29.2 9.72 (18:20) 6.11 (18:10) 0 0 0 0 0
19-07-2019 39 (18:00) 19.3 (00:00) 29.1 9.17 (22:20) 6.11 (23:00) 0 0 0 0 0
18-07-2019 35.8 (18:20) 17.7 (00:00) 26.8 8.06 (16:20) 5 (16:20) 0 0 0 0 0

Gráficas

Temp. máximas Temp. mínimas Temp. medias Precipitaciones Rachas de viento máximas Velocidades máximas media en intervalos de 10 minutos

Datos horarios

Fecha y hora oficial Temperatura (ºC) Velocidad del viento (km/h) Dirección del viento Racha (km/h) Dirección de racha Precipitación (mm) Presión (hPa) Tendencia (hPa) Humedad (%)
2019-08-16 23:00:00 28.4 10 Noroeste 20 Noroeste 0 -- -- 33
2019-08-16 22:00:00 30.8 9 Noroeste 22 Noroeste 0 -- -- 26
2019-08-16 21:00:00 34.2 13 Noroeste 26 Noroeste 0 -- -- 24
2019-08-16 20:00:00 36.3 11 Oeste 27 Noroeste 0 -- -- 21
2019-08-16 19:00:00 37.5 10 Oeste 28 Oeste 0 -- -- 20
2019-08-16 18:00:00 38.3 10 Oeste 27 Oeste 0 -- -- 20
2019-08-16 17:00:00 37.7 14 Noroeste 24 Noroeste 0 -- -- 24
2019-08-16 16:00:00 37.7 8 Oeste 19 Sur 0 -- -- 23
2019-08-16 15:00:00 36.4 9 Sudoeste 26 Oeste 0 -- -- 22
2019-08-16 14:00:00 35.3 9 Oeste 21 Noroeste 0 -- -- 24
2019-08-16 13:00:00 34 8 Sudoeste 20 Sudoeste 0 -- -- 28
2019-08-16 12:00:00 30.9 4 Noroeste 10 Noroeste 0 -- -- 37
2019-08-16 11:00:00 28.5 3 Noroeste 8 Norte 0 -- -- 41
2019-08-16 10:00:00 25.5 3 Sur 9 Sur 0 -- -- 47
2019-08-16 09:00:00 21.7 5 Sur 10 Sur 0 -- -- 55
2019-08-16 08:00:00 18.8 7 Sudeste 11 Sudeste 0 -- -- 60
2019-08-16 07:00:00 18.9 6 Sudeste 9 Sur 0 -- -- 59
2019-08-16 06:00:00 20.1 6 Sudeste 8 Sur 0 -- -- 55
2019-08-16 05:00:00 20.2 6 Sudeste 8 Sudeste 0 -- -- 52
2019-08-16 04:00:00 21 6 Sudeste 8 Sur 0 -- -- 49
2019-08-16 03:00:00 22 6 Sudeste 8 Sudeste 0 -- -- 47
2019-08-16 02:00:00 23.4 4 Sudeste 8 Noroeste 0 -- -- 44
2019-08-16 01:00:00 25.3 2 Oeste 14 Norte 0 -- -- 41
2019-08-16 00:00:00 27.4 9 Noroeste 18 Norte 0 -- -- 37
2019-08-15 23:00:00 27.8 8 Norte 11 Norte 0 -- -- 32
2019-08-15 22:00:00 30.7 3 Norte 14 Noroeste 0 -- -- 28
2019-08-15 21:00:00 33.7 9 Noroeste 28 Norte 0 -- -- 25
2019-08-15 20:00:00 35.7 12 Norte 25 Norte 0 -- -- 22
2019-08-15 19:00:00 36.4 12 Norte 42 Norte 0 -- -- 22
2019-08-15 18:00:00 36.9 13 Norte 27 Norte 0 -- -- 21
2019-08-15 17:00:00 37 13 Noroeste 28 Noroeste 0 -- -- 21
2019-08-15 16:00:00 36.2 10 Noroeste 26 Noroeste 0 -- -- 22
2019-08-15 15:00:00 35.8 9 Noroeste 18 Noroeste 0 -- -- 22
2019-08-15 14:00:00 34.5 11 Noroeste 20 Noroeste 0 -- -- 24
2019-08-15 13:00:00 32.9 9 Noroeste 15 Noroeste 0 -- -- 29
2019-08-15 12:00:00 30.4 7 Noroeste 14 Noroeste 0 -- -- 37
2019-08-15 11:00:00 27.8 5 Noroeste 12 Noroeste 0 -- -- 46
2019-08-15 10:00:00 25.1 6 Noroeste 8 Noroeste 0 -- -- 53
2019-08-15 09:00:00 20.7 5 Sudeste 9 Sudeste 0 -- -- 52
2019-08-15 08:00:00 17 5 Sudeste 9 Sur 0 -- -- 62
2019-08-15 07:00:00 17.6 8 Sudeste 10 Sudeste 0 -- -- 63
2019-08-15 06:00:00 18 6 Sudeste 11 Sudeste 0 -- -- 60
2019-08-15 05:00:00 18.6 6 Sudeste 9 Sudeste 0 -- -- 59
2019-08-15 04:00:00 19.6 5 Sudeste 8 Sudeste 0 -- -- 57
2019-08-15 03:00:00 20.6 4 Sudeste 6 Noroeste 0 -- -- 54
2019-08-15 02:00:00 23.1 5 Noroeste 9 Noroeste 0 -- -- 50
2019-08-15 01:00:00 22.9 4 Noroeste 8 Noroeste 0 -- -- 41
2019-08-15 00:00:00 22.5 6 Noroeste 9 Norte 0 -- -- 32
2019-08-14 23:00:00 24.3 4 Sudeste 5 Sudeste 0 -- -- 29
2019-08-14 22:00:00 28.1 0 Calma 17 Norte 0 -- -- 23
2019-08-14 21:00:00 31.9 10 Noroeste 24 Noroeste 0 -- -- 20
2019-08-14 20:00:00 34 15 Noroeste 27 Norte 0 -- -- 17
2019-08-14 19:00:00 34.6 11 Norte 27 Noroeste 0 -- -- 17
2019-08-14 18:00:00 35.2 17 Noroeste 28 Noroeste 0 -- -- 16
2019-08-14 17:00:00 34.7 12 Norte 31 Noroeste 0 -- -- 16
2019-08-14 16:00:00 34.3 10 Noroeste 23 Norte 0 -- -- 17
2019-08-14 15:00:00 34.3 8 Sur 22 Norte 0 -- -- 16
2019-08-14 14:00:00 33 9 Norte 22 Noroeste 0 -- -- 17
2019-08-14 13:00:00 32.3 8 Noroeste 23 Noroeste 0 -- -- 18
2019-08-14 12:00:00 30.5 7 Noroeste 12 Noroeste 0 -- -- 22
2019-08-14 11:00:00 27.6 8 Noroeste 11 Noroeste 0 -- -- 26
2019-08-14 10:00:00 23.7 6 Sudeste 10 Sudeste 0 -- -- 34
2019-08-14 09:00:00 18 8 Sudeste 16 Sudeste 0 -- -- 42
2019-08-14 08:00:00 14.2 7 Sudeste 10 Sur 0 -- -- 47
2019-08-14 07:00:00 13.9 7 Sudeste 10 Sudeste 0 -- -- 47
2019-08-14 06:00:00 14.7 7 Sudeste 9 Sur 0 -- -- 49
2019-08-14 05:00:00 15 6 Sudeste 9 Sudeste 0 -- -- 47
2019-08-14 04:00:00 16.2 6 Sudeste 9 Sudeste 0 -- -- 43
2019-08-14 03:00:00 16.9 5 Sudeste 10 Sudeste 0 -- -- 40
2019-08-14 02:00:00 17.2 5 Sudeste 8 Sudeste 0 -- -- 33
2019-08-14 01:00:00 18.1 3 Sudeste 6 Sudeste 0 -- -- 29
2019-08-14 00:00:00 20.2 6 Sudeste 9 Sudeste 0 -- -- 26
2019-08-13 23:00:00 21.9 6 Sudeste 8 Sudeste 0 -- -- 23
2019-08-13 22:00:00 25.8 6 Norte 17 Noroeste 0 -- -- 19
2019-08-13 21:00:00 29.6 9 Noroeste 24 Noroeste 0 -- -- 16
2019-08-13 20:00:00 32.2 15 Noroeste 24 Norte 0 -- -- 14
2019-08-13 19:00:00 33 9 Norte 29 Noroeste 0 -- -- 13
2019-08-13 18:00:00 32.9 9 Norte 19 Norte 0 -- -- 13
2019-08-13 17:00:00 32.7 12 Norte 21 Nordeste 0 -- -- 14
2019-08-13 16:00:00 32.4 10 Norte 22 Norte 0 -- -- 15
2019-08-13 15:00:00 31.6 8 Nordeste 21 Norte 0 -- -- 16
2019-08-13 14:00:00 30.2 9 Oeste 19 Noroeste 0 -- -- 19
2019-08-13 13:00:00 28.7 9 Norte 16 Noroeste 0 -- -- 20
2019-08-13 12:00:00 26 8 Noroeste 15 Noroeste 0 -- -- 25
2019-08-13 11:00:00 23.3 9 Noroeste 16 Noroeste 0 -- -- 29
2019-08-13 10:00:00 20.3 9 Noroeste 14 Noroeste 0 -- -- 35
2019-08-13 09:00:00 16.1 5 Noroeste 6 Noroeste 0 -- -- 44
2019-08-13 08:00:00 11.3 3 Sudeste 4 Sur 0 -- -- 53
2019-08-13 07:00:00 11.6 3 Sudeste 4 Sur 0 -- -- 51
2019-08-13 06:00:00 12.3 3 Sur 6 Sur 0 -- -- 47
2019-08-13 05:00:00 13.3 3 Sudeste 5 Sudeste 0 -- -- 44
2019-08-13 04:00:00 15 2 Sudeste 9 Noroeste 0 -- -- 37
2019-08-13 03:00:00 17.8 6 Noroeste 9 Noroeste 0 -- -- 31
2019-08-13 02:00:00 15.3 3 Noroeste 5 Noroeste 0 -- -- 34
2019-08-13 01:00:00 17.2 4 Sudeste 5 Sudeste 0 -- -- 30
2019-08-13 00:00:00 18.8 3 Sudeste 4 Sudeste 0 -- -- 29
2019-08-12 23:00:00 21.1 0 Calma 6 Noroeste 0 -- -- 25
2019-08-12 22:00:00 24.4 7 Noroeste 24 Noroeste 0 -- -- 22
2019-08-12 21:00:00 27.3 13 Norte 32 Noroeste 0 -- -- 20
2019-08-12 20:00:00 28.2 14 Norte 30 Noroeste 0 -- -- 20
2019-08-12 19:00:00 28.7 6 Oeste 21 Norte 0 -- -- 22
2019-08-12 18:00:00 28.8 14 Norte 30 Norte 0 -- -- 20
2019-08-12 17:00:00 28.6 11 Norte 28 Nordeste 0 -- -- 18
2019-08-12 16:00:00 28 11 Norte 37 Noroeste 0 -- -- 21
2019-08-12 15:00:00 27.1 16 Norte 31 Noroeste 0 -- -- 23
2019-08-12 14:00:00 26 12 Norte 40 Noroeste 0 -- -- 27
2019-08-12 13:00:00 24.1 16 Norte 32 Noroeste 0 -- -- 33
2019-08-12 12:00:00 21.8 21 Noroeste 32 Noroeste 0 -- -- 39
2019-08-12 11:00:00 19.3 21 Noroeste 32 Noroeste 0 -- -- 46
2019-08-12 10:00:00 17.3 20 Noroeste 28 Noroeste 0 -- -- 55
2019-08-12 09:00:00 14.8 13 Noroeste 19 Noroeste 0 -- -- 65
2019-08-12 08:00:00 12 7 Norte 12 Norte 0 -- -- 73
2019-08-12 07:00:00 11.9 4 Noroeste 6 Noroeste 0 -- -- 75
2019-08-12 06:00:00 12.5 0 Calma 4 Noroeste 0 -- -- 72
2019-08-12 05:00:00 14.2 2 Noroeste 18 Noroeste 0 -- -- 67
2019-08-12 04:00:00 15.8 14 Noroeste 22 Norte 0 -- -- 61
2019-08-12 03:00:00 16.4 17 Noroeste 28 Noroeste 0 -- -- 57
2019-08-12 02:00:00 17.2 21 Noroeste 30 Noroeste 0 -- -- 53
2019-08-12 01:00:00 18.7 19 Noroeste 38 Noroeste 0 -- -- 47
2019-08-12 00:00:00 20.5 21 Noroeste 32 Noroeste 0 -- -- 41
2019-08-11 23:00:00 21.9 20 Noroeste 31 Noroeste 0 -- -- 37
2019-08-11 22:00:00 22.3 12 Noroeste 19 Noroeste 0 -- -- 35
2019-08-11 21:00:00 24.1 15 Noroeste 35 Noroeste 0 -- -- 31
2019-08-11 20:00:00 25.6 21 Noroeste 32 Noroeste 0 -- -- 29
2019-08-11 19:00:00 25.4 18 Noroeste 32 Noroeste 0 -- -- 27
2019-08-11 18:00:00 25.4 19 Noroeste 39 Noroeste 0 -- -- 27
2019-08-11 17:00:00 27.3 21 Noroeste 41 Noroeste 0 -- -- 25
2019-08-11 16:00:00 26.2 22 Noroeste 46 Noroeste 0 -- -- 27
2019-08-11 15:00:00 25.6 26 Noroeste 35 Noroeste 0 -- -- 26
2019-08-11 14:00:00 24.9 21 Noroeste 35 Norte 0 -- -- 28
2019-08-11 13:00:00 23.6 22 Norte 35 Noroeste 0 -- -- 32
2019-08-11 12:00:00 22.3 19 Norte 27 Noroeste 0 -- -- 41
2019-08-11 11:00:00 19.9 13 Noroeste 20 Noroeste 0 -- -- 48
2019-08-11 10:00:00 17.6 15 Noroeste 22 Noroeste 0 -- -- 59
2019-08-11 09:00:00 16.3 14 Noroeste 25 Oeste 0 -- -- 62
2019-08-11 08:00:00 15.1 14 Noroeste 24 Noroeste 0 -- -- 68
2019-08-11 07:00:00 15.8 16 Noroeste 28 Noroeste 0 -- -- 64
2019-08-11 06:00:00 16.8 13 Noroeste 22 Oeste 0 -- -- 58
2019-08-11 05:00:00 17.8 19 Noroeste 27 Noroeste 0 -- -- 53
2019-08-11 04:00:00 17 0 Calma 15 Oeste 0 -- -- 56
2019-08-11 03:00:00 17.7 5 Noroeste 28 Noroeste 0 -- -- 56
2019-08-11 02:00:00 19.3 14 Oeste 21 Oeste 0 -- -- 57
2019-08-11 01:00:00 19.9 9 Noroeste 18 Noroeste 0 -- -- 58
2019-08-11 00:00:00 21.8 9 Noroeste 24 Noroeste 0 -- -- 47
2019-08-10 23:00:00 23.6 17 Noroeste 28 Noroeste 0 -- -- 41
2019-08-10 22:00:00 24.9 20 Noroeste 33 Noroeste 0 -- -- 38
2019-08-10 21:00:00 27.2 17 Noroeste 31 Noroeste 0 -- -- 24
2019-08-10 20:00:00 29.7 22 Noroeste 34 Noroeste 0 -- -- 24
2019-08-10 19:00:00 30.9 17 Norte 32 Noroeste 0 -- -- 19
2019-08-10 18:00:00 31.4 15 Noroeste 23 Noroeste 0 -- -- 21
2019-08-10 17:00:00 31.2 13 Noroeste 22 Noroeste 0 -- -- 25
2019-08-10 16:00:00 30.2 9 Norte 28 Noroeste 0 -- -- 28
2019-08-10 15:00:00 29.1 13 Noroeste 22 Norte 0 -- -- 31
2019-08-10 14:00:00 28.2 9 Norte 19 Norte 0 -- -- 35
2019-08-10 13:00:00 26.1 8 Norte 24 Nordeste 0 -- -- 40
2019-08-10 12:00:00 24.4 9 Norte 18 Norte 0 -- -- 44
2019-08-10 11:00:00 22.6 9 Noroeste 21 Noroeste 0 -- -- 49
2019-08-10 10:00:00 20.1 5 Noroeste 9 Noroeste 0 -- -- 63
2019-08-10 09:00:00 17.5 5 Noroeste 7 Noroeste 0 -- -- 76
2019-08-10 08:00:00 15.2 2 Sur 6 Noroeste 0 -- -- 82
2019-08-10 07:00:00 16.2 2 Noroeste 7 Noroeste 0 -- -- 78
2019-08-10 06:00:00 16.9 4 Noroeste 6 Noroeste 0 -- -- 77
2019-08-10 05:00:00 17.7 5 Noroeste 9 Noroeste 0 -- -- 74
2019-08-10 04:00:00 18.6 4 Noroeste 10 Noroeste 0 -- -- 68
2019-08-10 03:00:00 19.1 3 Oeste 5 Norte 0 -- -- 65
2019-08-10 02:00:00 20.6 3 Norte 9 Norte 0 -- -- 60
2019-08-10 01:00:00 21 6 Noroeste 8 Noroeste 0 -- -- 57
2019-08-10 00:00:00 22 5 Noroeste 23 Noroeste 0 -- -- 59
2019-08-09 23:00:00 23.3 14 Noroeste 22 Noroeste 0 -- -- 66
2019-08-09 22:00:00 24.1 12 Noroeste 27 Noroeste 0 -- -- 63
2019-08-09 21:00:00 25.4 21 Noroeste 29 Noroeste 0 -- -- 59
2019-08-09 20:00:00 28.3 17 Noroeste 31 Noroeste 0 -- -- 53
2019-08-09 19:00:00 29.4 12 Oeste 31 Oeste 0 -- -- 49
2019-08-09 18:00:00 29.8 14 Oeste 31 Noroeste 0 -- -- 51
2019-08-09 17:00:00 28.6 21 Noroeste 33 Noroeste 0 -- -- 57
2019-08-09 16:00:00 30.5 15 Oeste 30 Oeste 0 -- -- 45
2019-08-09 15:00:00 29.5 17 Oeste 30 Oeste 0 -- -- 51
2019-08-09 14:00:00 29.6 9 Sudoeste 27 Sur 0 -- -- 50
2019-08-09 13:00:00 27 10 Oeste 22 Sur 0 -- -- 60
2019-08-09 12:00:00 25.3 12 Sur 22 Sur 0 -- -- 67
2019-08-09 11:00:00 22.8 7 Oeste 17 Sudoeste 0 -- -- 76
2019-08-09 10:00:00 21.6 8 Sudoeste 17 Oeste 0 -- -- 81
2019-08-09 09:00:00 21 5 Sudoeste 15 Oeste 0 -- -- 81
2019-08-09 08:00:00 20.2 4 Norte 16 Oeste 0 -- -- 83
2019-08-09 07:00:00 20 4 Sudoeste 10 Sudeste 0 -- -- 85
2019-08-09 06:00:00 20.2 5 Sudoeste 17 Sudoeste 0 -- -- 83
2019-08-09 05:00:00 20.9 9 Sudoeste 15 Oeste 0 -- -- 80
2019-08-09 04:00:00 21.5 6 Sur 16 Sur 0 -- -- 75
2019-08-09 03:00:00 22.5 5 Sudeste 27 Oeste 0 -- -- 67
2019-08-09 02:00:00 23.9 11 Oeste 21 Noroeste 0 -- -- 62
2019-08-09 01:00:00 24.3 2 Oeste 24 Noroeste 0 -- -- 59
2019-08-09 00:00:00 25.5 12 Noroeste 32 Oeste 0 -- -- 58
2019-08-08 23:00:00 27.4 15 Oeste 23 Oeste 0 -- -- 50
2019-08-08 22:00:00 28.6 11 Oeste 24 Noroeste 0 -- -- 40
2019-08-08 21:00:00 30.3 17 Noroeste 29 Noroeste 0 -- -- 35
2019-08-08 20:00:00 32.9 14 Oeste 27 Noroeste 0 -- -- 31
2019-08-08 19:00:00 34.1 13 Oeste 32 Sudoeste 0 -- -- 28
2019-08-08 18:00:00 34.6 11 Oeste 28 Oeste 0 -- -- 26
2019-08-08 17:00:00 34.9 9 Sudoeste 28 Oeste 0 -- -- 25
2019-08-08 16:00:00 34.4 8 Noroeste 28 Oeste 0 -- -- 25
2019-08-08 15:00:00 33.7 4 Sur 22 Oeste 0 -- -- 25
2019-08-08 14:00:00 32 9 Sudoeste 28 Sur 0 -- -- 27
2019-08-08 13:00:00 30.4 8 Sur 23 Sudeste 0 -- -- 31
2019-08-08 12:00:00 28 8 Sur 15 Sur 0 -- -- 41
2019-08-08 11:00:00 25.5 2 Noroeste 10 Sur 0 -- -- 50
2019-08-08 10:00:00 23 6 Sudeste 13 Sudeste 0 -- -- 58
2019-08-08 09:00:00 19.6 9 Sur 12 Sur 0 -- -- 65
2019-08-08 08:00:00 16.5 7 Sur 10 Sur 0 -- -- 74
2019-08-08 07:00:00 16.7 5 Sur 10 Sur 0 -- -- 72
2019-08-08 06:00:00 17.1 6 Sudeste 8 Sudeste 0 -- -- 71
2019-08-08 05:00:00 17.5 6 Sudeste 10 Sur 0 -- -- 68
2019-08-08 04:00:00 18.9 3 Sur 9 Sur 0 -- -- 64
2019-08-08 03:00:00 19.2 4 Sur 10 Sudeste 0 -- -- 62
2019-08-08 02:00:00 19.5 6 Sudeste 8 Sur 0 -- -- 63
2019-08-08 01:00:00 19.9 8 Sudeste 13 Sudeste 0 -- -- 62
2019-08-08 00:00:00 20.2 4 Sudeste 8 Sur 0 -- -- 62
2019-08-07 23:00:00 21.3 0 Calma 5 Sudeste 0 -- -- 58
2019-08-07 22:00:00 23.8 3 Norte 9 Noroeste 0 -- -- 52
2019-08-07 21:00:00 26.4 4 Oeste 9 Noroeste 0 -- -- 45
2019-08-07 20:00:00 27.5 3 Sur 12 Noroeste 0 -- -- 43
2019-08-07 19:00:00 25.3 8 Noroeste 18 Noroeste 0 -- -- 50
2019-08-07 18:00:00 25.1 10 Noroeste 17 Noroeste 0 -- -- 51
2019-08-07 17:00:00 25.6 9 Norte 15 Noroeste 0 -- -- 46
2019-08-07 16:00:00 25.5 7 Noroeste 20 Noroeste 0 -- -- 47
2019-08-07 15:00:00 26.1 13 Noroeste 24 Noroeste 0 -- -- 44
2019-08-07 14:00:00 26.4 15 Noroeste 24 Noroeste 0 -- -- 43
2019-08-07 13:00:00 26 15 Norte 27 Noroeste 0 -- -- 42
2019-08-07 12:00:00 25.5 8 Noroeste 16 Norte 0 -- -- 51
2019-08-07 11:00:00 22.9 3 Noroeste 13 Noroeste 0 -- -- 60
2019-08-07 10:00:00 21.3 8 Noroeste 12 Noroeste 0 -- -- 67
2019-08-07 09:00:00 20.9 4 Norte 11 Sudeste 0 -- -- 70
2019-08-07 08:00:00 18.6 5 Sudeste 11 Este 0 -- -- 79
2019-08-07 07:00:00 19.1 8 Sudeste 14 Este 0 -- -- 76
2019-08-07 06:00:00 20 8 Sur 14 Sur 0 -- -- 73
2019-08-07 05:00:00 20.2 7 Sudeste 14 Sur 0 -- -- 70
2019-08-07 04:00:00 20.4 5 Sur 9 Sur 0 -- -- 66
2019-08-07 03:00:00 20.8 3 Sudeste 6 Sudeste 0 -- -- 63
2019-08-07 02:00:00 22.7 0 Calma 13 Norte 0 -- -- 58
2019-08-07 01:00:00 24.1 11 Norte 18 Norte 0 -- -- 54
2019-08-07 00:00:00 25 5 Noroeste 14 Noroeste 0 -- -- 49
2019-08-06 23:00:00 26.5 7 Noroeste 33 Noroeste 0 -- -- 45
2019-08-06 22:00:00 28.6 11 Noroeste 23 Noroeste 0 -- -- 38
2019-08-06 21:00:00 31 13 Noroeste 23 Oeste 0 -- -- 29
2019-08-06 20:00:00 32.7 14 Noroeste 28 Noroeste 0 -- -- 25
2019-08-06 19:00:00 34.1 15 Noroeste 31 Oeste 0 -- -- 20
2019-08-06 18:00:00 34.6 14 Oeste 30 Oeste 0 -- -- 19
2019-08-06 17:00:00 34.8 10 Oeste 31 Sudoeste 0 -- -- 21
2019-08-06 16:00:00 34.7 12 Oeste 25 Oeste 0 -- -- 20
2019-08-06 15:00:00 34.1 15 Sur 30 Oeste 0 -- -- 19
2019-08-06 14:00:00 32.7 13 Oeste 31 Oeste 0 -- -- 21
2019-08-06 13:00:00 31.7 13 Oeste 25 Oeste 0 -- -- 23
2019-08-06 12:00:00 30.2 10 Oeste 21 Sur 0 -- -- 28
2019-08-06 11:00:00 26.4 8 Sudeste 21 Sur 0 -- -- 41
2019-08-06 10:00:00 22.9 12 Sudeste 21 Sudeste 0 -- -- 49
2019-08-06 09:00:00 19.6 10 Sudeste 17 Sudeste 0 -- -- 57
2019-08-06 08:00:00 16.7 7 Noroeste 14 Noroeste 0 -- -- 65
2019-08-06 07:00:00 19.2 3 Sur 21 Sur 0 -- -- 57
2019-08-06 06:00:00 19.8 17 Sur 23 Sur 0 -- -- 55
2019-08-06 05:00:00 20.9 10 Sudeste 17 Sudeste 0 -- -- 52
2019-08-06 04:00:00 20.6 3 Sudeste 13 Este 0 -- -- 50
2019-08-06 03:00:00 19.6 6 Sudeste 14 Noroeste 0 -- -- 50
2019-08-06 02:00:00 21.2 2 Este 6 Sudeste 0 -- -- 48
2019-08-06 01:00:00 21.1 4 Sur 6 Sur 0 -- -- 39
2019-08-06 00:00:00 23.1 3 Noroeste 5 Noroeste 0 -- -- 34
2019-08-05 23:00:00 26.2 3 Noroeste 8 Oeste 0 -- -- 28
2019-08-05 22:00:00 30 5 Oeste 15 Noroeste 0 -- -- 22
2019-08-05 21:00:00 32.5 10 Oeste 27 Oeste 0 -- -- 18
2019-08-05 20:00:00 34.4 14 Oeste 29 Oeste 0 -- -- 14
2019-08-05 19:00:00 35.3 13 Sudoeste 24 Sudoeste 0 -- -- 16
2019-08-05 18:00:00 35.7 13 Noroeste 27 Noroeste 0 -- -- 17
2019-08-05 17:00:00 35.4 14 Noroeste 25 Noroeste 0 -- -- 19
2019-08-05 16:00:00 36.1 11 Oeste 26 Oeste 0 -- -- 20
2019-08-05 15:00:00 34.9 15 Oeste 30 Oeste 0 -- -- 18
2019-08-05 14:00:00 34 10 Sur 25 Sudoeste 0 -- -- 20
2019-08-05 13:00:00 31.6 12 Noroeste 18 Noroeste 0 -- -- 29
2019-08-05 12:00:00 29.4 9 Norte 14 Norte 0 -- -- 33
2019-08-05 11:00:00 26 6 Noroeste 9 Noroeste 0 -- -- 42
2019-08-05 10:00:00 22.1 5 Noroeste 8 Noroeste 0 -- -- 54
2019-08-05 09:00:00 19.4 5 Sur 10 Sur 0 -- -- 63
2019-08-05 08:00:00 15.8 8 Sur 11 Sur 0 -- -- 72
2019-08-05 07:00:00 16.3 9 Sur 11 Sur 0 -- -- 69
2019-08-05 06:00:00 16.8 6 Sudeste 9 Sur 0 -- -- 69
2019-08-05 05:00:00 16.9 0 Calma 6 Sudeste 0 -- -- 66
2019-08-05 04:00:00 17.9 5 Sudeste 8 Sudeste 0 -- -- 64
2019-08-05 03:00:00 19 3 Sudeste 5 Sudeste 0 -- -- 60
2019-08-05 02:00:00 20.4 0 Calma 5 Noroeste 0 -- -- 56
2019-08-05 01:00:00 22.8 6 Noroeste 22 Noroeste 0 -- -- 52
2019-08-05 00:00:00 24.8 14 Noroeste 24 Noroeste 0 -- -- 48
2019-08-04 23:00:00 27.1 17 Noroeste 24 Norte 0 -- -- 39
2019-08-04 22:00:00 29 16 Noroeste 27 Noroeste 0 -- -- 35
2019-08-04 21:00:00 31.9 17 Noroeste 24 Noroeste 0 -- -- 26
2019-08-04 20:00:00 34.5 9 Noroeste 22 Noroeste 0 -- -- 21
2019-08-04 19:00:00 34.7 17 Noroeste 25 Noroeste 0 -- -- 21
2019-08-04 18:00:00 34.9 10 Noroeste 29 Noroeste 0 -- -- 23
2019-08-04 17:00:00 34.5 15 Norte 28 Norte 0 -- -- 24
2019-08-04 16:00:00 33.7 15 Noroeste 25 Norte 0 -- -- 28
2019-08-04 15:00:00 32.5 10 Norte 27 Noroeste 0 -- -- 33
2019-08-04 14:00:00 31.9 9 Nordeste 33 Noroeste 0 -- -- 33
2019-08-04 13:00:00 30.5 11 Sur 21 Sur 0 -- -- 31
2019-08-04 12:00:00 28.1 6 Sudoeste 15 Sudoeste 0 -- -- 38
2019-08-04 11:00:00 24.4 5 Noroeste 9 Noroeste 0 -- -- 52
2019-08-04 10:00:00 21.8 3 Noroeste 11 Norte 0 -- -- 60
2019-08-04 09:00:00 19.9 10 Sudeste 16 Sudeste 0 -- -- 69
2019-08-04 08:00:00 17.8 7 Sudeste 14 Sudeste 0 -- -- 75
2019-08-04 07:00:00 17.3 0 Calma 11 Sur 0 -- -- 70
2019-08-04 06:00:00 19.7 7 Sudeste 14 Sudeste 0 -- -- 64
2019-08-04 05:00:00 19 0 Calma 8 Sudeste 0 -- -- 66
2019-08-04 04:00:00 20.8 3 Sudeste 12 Sudeste 0 -- -- 61
2019-08-04 03:00:00 19.9 6 Sudeste 10 Sudeste 0 -- -- 59
2019-08-04 02:00:00 20.5 2 Este 6 Sudeste 0 -- -- 54
2019-08-04 01:00:00 22.3 0 Calma 5 Noroeste 0 -- -- 49
2019-08-04 00:00:00 25.5 5 Noroeste 20 Noroeste 0 -- -- 34
2019-08-03 23:00:00 28.5 6 Oeste 15 Oeste 0 -- -- 29
2019-08-03 22:00:00 29.5 4 Oeste 21 Noroeste 0 -- -- 27
2019-08-03 21:00:00 31.7 9 Noroeste 31 Noroeste 0 -- -- 23
2019-08-03 20:00:00 33.5 13 Noroeste 24 Oeste 0 -- -- 21
2019-08-03 19:00:00 34.4 12 Sudoeste 28 Oeste 0 -- -- 19
2019-08-03 18:00:00 34.8 12 Sudoeste 30 Oeste 0 -- -- 21
2019-08-03 17:00:00 35 9 Noroeste 29 Oeste 0 -- -- 21
2019-08-03 16:00:00 34.7 12 Oeste 26 Noroeste 0 -- -- 21
2019-08-03 15:00:00 33.6 11 Noroeste 26 Oeste 0 -- -- 21
2019-08-03 14:00:00 32.9 13 Oeste 27 Oeste 0 -- -- 22
2019-08-03 13:00:00 32.3 8 Sur 22 Sudoeste 0 -- -- 23
2019-08-03 12:00:00 30.8 8 Sudoeste 22 Sur 0 -- -- 25
2019-08-03 11:00:00 28.7 7 Sudeste 13 Sudeste 0 -- -- 36
2019-08-03 10:00:00 24.7 9 Este 15 Sudeste 0 -- -- 49
2019-08-03 09:00:00 20.5 10 Sudeste 14 Sudeste 0 -- -- 59
2019-08-03 08:00:00 17 10 Sur 15 Sur 0 -- -- 67
2019-08-03 07:00:00 17.3 9 Sur 12 Sur 0 -- -- 67
2019-08-03 06:00:00 18.4 8 Sur 16 Sudeste 0 -- -- 64
2019-08-03 05:00:00 20.2 13 Sudeste 18 Sudeste 0 -- -- 59
2019-08-03 04:00:00 18.3 6 Sur 8 Sur 0 -- -- 57
2019-08-03 03:00:00 18.9 6 Sudeste 9 Sudeste 0 -- -- 49
2019-08-03 02:00:00 20.1 5 Sudeste 7 Sudeste 0 -- -- 42
2019-08-03 01:00:00 21.7 0 Calma 10 Oeste 0 -- -- 35
2019-08-03 00:00:00 22.7 3 Sur 7 Sur 0 -- -- 32
2019-08-02 23:00:00 24.7 5 Sudeste 7 Sudeste 0 -- -- 29
2019-08-02 22:00:00 28.1 2 Norte 15 Noroeste 0 -- -- 24
2019-08-02 21:00:00 31.7 9 Noroeste 24 Norte 0 -- -- 21
2019-08-02 20:00:00 33.4 16 Noroeste 27 Noroeste 0 -- -- 20
2019-08-02 19:00:00 34 16 Noroeste 28 Noroeste 0 -- -- 21
2019-08-02 18:00:00 34 12 Noroeste 27 Noroeste 0 -- -- 22
2019-08-02 17:00:00 34 18 Noroeste 27 Noroeste 0 -- -- 22
2019-08-02 16:00:00 33.7 10 Norte 26 Norte 0 -- -- 22
2019-08-02 15:00:00 32.6 9 Noroeste 25 Noroeste 0 -- -- 22
2019-08-02 14:00:00 31 11 Norte 23 Noroeste 0 -- -- 24
2019-08-02 13:00:00 29.7 14 Noroeste 20 Noroeste 0 -- -- 29
2019-08-02 12:00:00 28.1 5 Noroeste 12 Oeste 0 -- -- 27
2019-08-02 11:00:00 24.5 3 Noroeste 9 Noroeste 0 -- -- 37
2019-08-02 10:00:00 21.9 4 Este 13 Sudeste 0 -- -- 44
2019-08-02 09:00:00 17.8 6 Sudeste 12 Sudeste 0 -- -- 54
2019-08-02 08:00:00 13.6 6 Sur 8 Sur 0 -- -- 63
2019-08-02 07:00:00 13.6 4 Sudeste 5 Sudeste 0 -- -- 63
2019-08-02 06:00:00 14.4 2 Sudeste 4 Sudeste 0 -- -- 60
2019-08-02 05:00:00 15.9 2 Sudeste 5 Este 0 -- -- 56
2019-08-02 04:00:00 17.5 3 Sudeste 6 Sur 0 -- -- 53
2019-08-02 03:00:00 18.3 5 Sudeste 8 Sur 0 -- -- 48
2019-08-02 02:00:00 20.1 0 Calma 6 Este 0 -- -- 45
2019-08-02 01:00:00 22 0 Calma 20 Noroeste 0 -- -- 39
2019-08-02 00:00:00 25 19 Noroeste 32 Noroeste 0 -- -- 35
2019-08-01 23:00:00 26.6 14 Noroeste 23 Noroeste 0 -- -- 32
2019-08-01 22:00:00 27.6 7 Noroeste 23 Noroeste 0 -- -- 26
2019-08-01 21:00:00 31.2 17 Noroeste 29 Norte 0 -- -- 22
2019-08-01 20:00:00 32.9 17 Noroeste 31 Noroeste 0 -- -- 22
2019-08-01 19:00:00 33.6 13 Noroeste 31 Norte 0 -- -- 21
2019-08-01 18:00:00 34.2 17 Noroeste 30 Noroeste 0 -- -- 20
2019-08-01 17:00:00 34.3 10 Sudoeste 26 Oeste 0 -- -- 20
2019-08-01 16:00:00 33.5 11 Oeste 27 Oeste 0 -- -- 19
2019-08-01 15:00:00 32.4 9 Oeste 24 Oeste 0 -- -- 19
2019-08-01 14:00:00 31.6 13 Oeste 26 Oeste 0 -- -- 12
2019-08-01 13:00:00 30.4 12 Oeste 30 Oeste 0 -- -- 21
2019-08-01 12:00:00 28.3 11 Oeste 24 Sudoeste 0 -- -- 25
2019-08-01 11:00:00 26.3 7 Noroeste 19 Oeste 0 -- -- 35
2019-08-01 10:00:00 24 8 Oeste 16 Oeste 0 -- -- 43
2019-08-01 09:00:00 20.7 11 Sudeste 15 Sudeste 0 -- -- 52
2019-08-01 08:00:00 18.7 4 Sudeste 15 Sudeste 0 -- -- 57
2019-08-01 07:00:00 19.8 9 Sudeste 20 Sudeste 0 -- -- 51
2019-08-01 06:00:00 20.5 11 Sudeste 22 Sudeste 0 -- -- 48
2019-08-01 05:00:00 20.2 4 Sudeste 9 Sudeste 0 -- -- 49
2019-08-01 04:00:00 19.3 3 Sudeste 8 Sudeste 0 -- -- 48
2019-08-01 03:00:00 19.8 4 Sur 8 Sudeste 0 -- -- 44
2019-08-01 02:00:00 20.4 6 Sudeste 8 Sudeste 0 -- -- 41
2019-08-01 01:00:00 21.3 4 Sudeste 6 Sudeste 0 -- -- 41
2019-08-01 00:00:00 23.1 4 Noroeste 10 Norte 0 -- -- 37
2019-07-31 23:00:00 25.1 10 Norte 28 Norte 0 -- -- 35
2019-07-31 22:00:00 27.5 18 Noroeste 38 Noroeste 0 -- -- 31
2019-07-31 21:00:00 32 13 Noroeste 23 Noroeste 0 -- -- 18
2019-07-31 20:00:00 34.2 17 Noroeste 24 Norte 0 -- -- 17
2019-07-31 19:00:00 34.9 13 Noroeste 27 Norte 0 -- -- 16
2019-07-31 18:00:00 35.2 15 Noroeste 27 Noroeste 0 -- -- 17
2019-07-31 17:00:00 35.1 14 Noroeste 28 Noroeste 0 -- -- 17
2019-07-31 16:00:00 34 13 Norte 35 Noroeste 0 -- -- 18
2019-07-31 15:00:00 33.5 16 Norte 30 Noroeste 0 -- -- 18
2019-07-31 14:00:00 33.4 11 Noroeste 26 Oeste 0 -- -- 17
2019-07-31 13:00:00 32.2 7 Este 15 Este 0 -- -- 19
2019-07-31 12:00:00 28.6 7 Noroeste 12 Noroeste 0 -- -- 24
2019-07-31 11:00:00 25.7 6 Noroeste 11 Noroeste 0 -- -- 27
2019-07-31 10:00:00 22.9 2 Sur 10 Sur 0 -- -- 31
2019-07-31 09:00:00 18 8 Sur 12 Sudeste 0 -- -- 42
2019-07-31 08:00:00 13 7 Sudeste 11 Sudeste 0 -- -- 54
2019-07-31 07:00:00 12.5 7 Sudeste 9 Sudeste 0 -- -- 57
2019-07-31 06:00:00 12.7 5 Sudeste 8 Sudeste 0 -- -- 57
2019-07-31 05:00:00 13.1 3 Sudeste 6 Sudeste 0 -- -- 56
2019-07-31 04:00:00 13.4 2 Sudeste 5 Sudeste 0 -- -- 52
2019-07-31 03:00:00 14.7 0 Calma 7 Sudeste 0 -- -- 47
2019-07-31 02:00:00 15.7 5 Sur 6 Sur 0 -- -- 40
2019-07-31 01:00:00 17.2 4 Noroeste 8 Noroeste 0 -- -- 34
2019-07-31 00:00:00 18.9 5 Sudeste 6 Sudeste 0 -- -- 32
2019-07-30 23:00:00 21.4 0 Calma 6 Norte 0 -- -- 28
2019-07-30 22:00:00 25.2 5 Norte 15 Noroeste 0 -- -- 22
2019-07-30 21:00:00 28.9 12 Noroeste 22 Noroeste 0 -- -- 19
2019-07-30 20:00:00 30.3 13 Norte 28 Noroeste 0 -- -- 17
2019-07-30 19:00:00 30.6 14 Noroeste 25 Noroeste 0 -- -- 17
2019-07-30 18:00:00 30.9 9 Noroeste 29 Norte 0 -- -- 18
2019-07-30 17:00:00 30.1 13 Noroeste 32 Noroeste 0 -- -- 19
2019-07-30 16:00:00 29.1 13 Norte 31 Noroeste 0 -- -- 21
2019-07-30 15:00:00 27.6 17 Noroeste 32 Noroeste 0 -- -- 24
2019-07-30 14:00:00 26.1 18 Noroeste 37 Noroeste 0 -- -- 29
2019-07-30 13:00:00 24.1 22 Noroeste 34 Norte 0 -- -- 34
2019-07-30 12:00:00 21.8 16 Noroeste 29 Noroeste 0 -- -- 39
2019-07-30 11:00:00 19.9 16 Norte 23 Norte 0 -- -- 46
2019-07-30 10:00:00 17.8 15 Noroeste 25 Noroeste 0 -- -- 53
2019-07-30 09:00:00 15.7 12 Noroeste 17 Norte 0 -- -- 63
2019-07-30 08:00:00 11.9 0 Calma 8 Noroeste 0 -- -- 75
2019-07-30 07:00:00 12.7 0 Calma 9 Noroeste 0 -- -- 71
2019-07-30 06:00:00 13.8 5 Noroeste 13 Norte 0 -- -- 69
2019-07-30 05:00:00 15.1 11 Norte 24 Noroeste 0 -- -- 64
2019-07-30 04:00:00 16.3 19 Noroeste 28 Noroeste 0 -- -- 60
2019-07-30 03:00:00 17.3 17 Noroeste 24 Noroeste 0 -- -- 55
2019-07-30 02:00:00 18.2 17 Norte 33 Noroeste 0 -- -- 50
2019-07-30 01:00:00 19.4 19 Noroeste 31 Noroeste 0 -- -- 47
2019-07-30 00:00:00 21.1 22 Noroeste 33 Noroeste 0 -- -- 43
2019-07-29 23:00:00 22.9 20 Noroeste 28 Noroeste 0 -- -- 38
2019-07-29 22:00:00 24.8 18 Noroeste 30 Noroeste 0 -- -- 32
2019-07-29 21:00:00 27.2 20 Noroeste 32 Noroeste 0 -- -- 29
2019-07-29 20:00:00 28.6 21 Noroeste 41 Noroeste 0 -- -- 26
2019-07-29 19:00:00 29.5 24 Noroeste 37 Noroeste 0 -- -- 27
2019-07-29 18:00:00 30.1 24 Norte 37 Noroeste 0 -- -- 28
2019-07-29 17:00:00 30.3 24 Noroeste 36 Norte 0 -- -- 32
2019-07-29 16:00:00 30.1 22 Noroeste 35 Noroeste 0 -- -- 37
2019-07-29 15:00:00 29.1 20 Norte 29 Noroeste 0 -- -- 42
2019-07-29 14:00:00 27.7 14 Norte 30 Norte 0 -- -- 44
2019-07-29 13:00:00 26.3 10 Norte 32 Norte 0 -- -- 44
2019-07-29 12:00:00 24.1 13 Noroeste 22 Noroeste 0 -- -- 48
2019-07-29 11:00:00 22.4 14 Norte 22 Noroeste 0 -- -- 52
2019-07-29 10:00:00 20.7 8 Norte 13 Noroeste 0 -- -- 42
2019-07-29 09:00:00 19 5 Norte 8 Norte 0 -- -- 37
2019-07-29 08:00:00 14 4 Este 6 Este 0 -- -- 52
2019-07-29 07:00:00 15.4 0 Calma 7 Este 0 -- -- 52
2019-07-29 06:00:00 16.9 6 Sudeste 14 Oeste 0 -- -- 41
2019-07-29 05:00:00 19.6 9 Oeste 20 Oeste 0 -- -- 36
2019-07-29 04:00:00 19.1 0 Calma 8 Noroeste 0 -- -- 56
2019-07-29 03:00:00 20.9 8 Noroeste 19 Noroeste 0 -- -- 52
2019-07-29 02:00:00 21 3 Noroeste 10 Oeste 0 -- -- 51
2019-07-29 01:00:00 22.3 8 Noroeste 23 Noroeste 0 -- -- 48
2019-07-29 00:00:00 21.7 5 Noroeste 8 Noroeste 0 -- -- 43
2019-07-28 23:00:00 24.3 0 Calma 5 Norte 0 -- -- 38
2019-07-28 22:00:00 26.6 6 Noroeste 24 Noroeste 0 -- -- 34
2019-07-28 21:00:00 29.3 17 Noroeste 24 Noroeste 0 -- -- 32
2019-07-28 20:00:00 30.6 13 Noroeste 27 Noroeste 0 -- -- 30
2019-07-28 19:00:00 31 6 Noroeste 25 Noroeste 0 -- -- 30
2019-07-28 18:00:00 30.9 10 Noroeste 21 Norte 0 -- -- 31
2019-07-28 17:00:00 30.7 6 Noroeste 28 Norte 0 -- -- 32
2019-07-28 16:00:00 29.9 10 Noroeste 21 Sur 0 -- -- 33
2019-07-28 15:00:00 29.2 6 Nordeste 20 Este 0 -- -- 36
2019-07-28 14:00:00 27.9 5 Nordeste 23 Sudeste 0 -- -- 38
2019-07-28 13:00:00 26.9 8 Sur 16 Sudeste 0 -- -- 42
2019-07-28 12:00:00 25.3 5 Nordeste 13 Este 0 -- -- 46
2019-07-28 11:00:00 22.8 5 Norte 12 Norte 0 -- -- 55
2019-07-28 10:00:00 19.1 3 Sudeste 13 Este 0 -- -- 75
2019-07-28 09:00:00 17.3 7 Sudeste 11 Sudeste 0 -- -- 82
2019-07-28 08:00:00 14.5 6 Sur 9 Sur 0 -- -- 92
2019-07-28 07:00:00 14.4 5 Sur 8 Sudeste 0 -- -- 92
2019-07-28 06:00:00 14.4 4 Sudeste 5 Sudeste 0 -- -- 89
2019-07-28 05:00:00 15.1 4 Sudeste 6 Sudeste 0 -- -- 88
2019-07-28 04:00:00 15.5 3 Sur 5 Sudeste 0 -- -- 86
2019-07-28 03:00:00 16.8 3 Sur 6 Oeste 0 -- -- 82
2019-07-28 02:00:00 18.5 6 Oeste 14 Oeste 0 -- -- 76
2019-07-28 01:00:00 19.8 10 Oeste 19 Oeste 0 -- -- 73
2019-07-28 00:00:00 20.9 6 Oeste 15 Oeste 0 -- -- 69
2019-07-27 23:00:00 21.8 8 Sudoeste 14 Oeste 0 -- -- 67
2019-07-26 12:00:00 23 12 Noroeste 22 Noroeste 0 -- -- 49
2019-07-26 11:00:00 20.3 9 Norte 18 Noroeste 0 -- -- 60
2019-07-26 10:00:00 17.4 8 Noroeste 17 Oeste 0 -- -- 72
2019-07-26 09:00:00 16.6 10 Noroeste 16 Oeste 0 -- -- 73
2019-07-26 08:00:00 14.9 3 Norte 7 Nordeste 0 -- -- 78
2019-07-26 07:00:00 15.9 0 Calma 4 Noroeste 0 -- -- 74
2019-07-26 06:00:00 18.1 4 Noroeste 15 Noroeste 0 -- -- 70
2019-07-26 05:00:00 18.9 9 Noroeste 15 Oeste 0 -- -- 64
2019-07-26 04:00:00 19.6 12 Noroeste 17 Noroeste 0 -- -- 73
2019-07-26 03:00:00 20.6 10 Noroeste 15 Noroeste 0 -- -- 75
2019-07-26 02:00:00 21.6 8 Norte 22 Oeste 0 -- -- 72
2019-07-26 01:00:00 22.8 16 Noroeste 24 Noroeste 0 -- -- 69
2019-07-26 00:00:00 23.6 14 Oeste 35 Noroeste 0 -- -- 67
2019-07-25 23:00:00 25.7 26 Noroeste 38 Noroeste 0 -- -- 59
2019-07-25 22:00:00 28.9 12 Noroeste 24 Noroeste 0 -- -- 33
2019-07-25 21:00:00 30.6 9 Noroeste 32 Noroeste 0 -- -- 30
2019-07-25 20:00:00 32.8 15 Noroeste 33 Noroeste 0 -- -- 26
2019-07-25 19:00:00 33.8 10 Sudoeste 27 Sudoeste 0 -- -- 29
2019-07-25 18:00:00 34.2 17 Oeste 34 Oeste 0 -- -- 27
2019-07-25 17:00:00 35 13 Oeste 25 Oeste 0 -- -- 25
2019-07-25 16:00:00 34.2 12 Oeste 24 Oeste 0 -- -- 27
2019-07-25 15:00:00 34 9 Sur 26 Sur 0 -- -- 27
2019-07-25 14:00:00 32.4 6 Norte 24 Noroeste 0 -- -- 32
2019-07-25 13:00:00 30.8 6 Norte 21 Noroeste 0 -- -- 34
2019-07-25 12:00:00 29.1 15 Noroeste 23 Norte 0 -- -- 37
2019-07-25 11:00:00 28.3 7 Noroeste 11 Noroeste 0 -- -- 37
2019-07-25 10:00:00 26.2 4 Este 10 Sur 0 -- -- 43
2019-07-25 09:00:00 22.3 8 Sur 12 Sur 0 -- -- 49
2019-07-25 08:00:00 19.4 8 Sur 12 Sudeste 0 -- -- 53
2019-07-25 07:00:00 19.7 6 Sur 14 Sudeste 0 -- -- 53
2019-07-25 06:00:00 20.1 5 Sur 11 Sur 0 -- -- 51
2019-07-25 05:00:00 21.1 4 Sur 12 Sudeste 0 -- -- 47
2019-07-25 04:00:00 22 5 Sudeste 8 Sudeste 0 -- -- 44
2019-07-25 03:00:00 22.9 2 Sudeste 10 Este 0 -- -- 43
2019-07-25 02:00:00 23.8 2 Nordeste 4 Noroeste 0 -- -- 42
2019-07-25 01:00:00 26.8 4 Noroeste 21 Noroeste 0 -- -- 36
2019-07-25 00:00:00 29.2 5 Oeste 19 Sudoeste 0 -- -- 33
2019-07-24 23:00:00 29.9 3 Sudoeste 17 Noroeste 0 -- -- 31
2019-07-24 22:00:00 32.4 17 Noroeste 27 Noroeste 0 -- -- 28
2019-07-24 21:00:00 34.8 10 Oeste 28 Noroeste 0 -- -- 26
2019-07-24 20:00:00 36.2 13 Oeste 27 Oeste 0 -- -- 25
2019-07-24 19:00:00 37 7 Noroeste 29 Oeste 0 -- -- 23
2019-07-24 18:00:00 37.6 12 Noroeste 23 Sur 0 -- -- 22
2019-07-24 17:00:00 37.7 10 Sur 27 Sudoeste 0 -- -- 19
2019-07-24 16:00:00 37.9 6 Este 27 Sudeste 0 -- -- 21
2019-07-24 15:00:00 36.5 13 Sudeste 39 Sudeste 0 -- -- 23
2019-07-24 14:00:00 35.8 7 Sudeste 29 Sur 0 -- -- 24
2019-07-24 13:00:00 34.7 10 Sudoeste 23 Sur 0 -- -- 26
2019-07-24 12:00:00 33.6 6 Sudeste 12 Este 0 -- -- 29
2019-07-24 11:00:00 31.6 4 Sudeste 9 Sudeste 0 -- -- 30
2019-07-24 10:00:00 27.9 2 Nordeste 6 Noroeste 0 -- -- 44
2019-07-24 09:00:00 24 0 Calma 7 Sur 0 -- -- 53
2019-07-24 08:00:00 21.5 6 Sur 12 Sur 0 -- -- 59
2019-07-24 07:00:00 21.3 7 Sur 12 Sur 0 -- -- 59
2019-07-24 06:00:00 22 9 Sudeste 13 Sur 0 -- -- 58
2019-07-24 05:00:00 22.6 7 Sur 14 Sur 0 -- -- 57
2019-07-24 04:00:00 23 8 Sudeste 13 Sur 0 -- -- 56
2019-07-24 03:00:00 23.4 5 Sudeste 6 Sudeste 0 -- -- 55
2019-07-24 02:00:00 24.9 6 Noroeste 18 Noroeste 0 -- -- 52
2019-07-24 01:00:00 26.7 13 Norte 20 Norte 0 -- -- 45
2019-07-24 00:00:00 27.6 7 Noroeste 19 Noroeste 0 -- -- 39
2019-07-23 23:00:00 29.9 8 Noroeste 21 Noroeste 0 -- -- 34
2019-07-23 22:00:00 32 11 Noroeste 23 Noroeste 0 -- -- 33
2019-07-23 21:00:00 33.7 10 Oeste 29 Oeste 0 -- -- 32
2019-07-23 20:00:00 35 15 Oeste 34 Oeste 0 -- -- 31
2019-07-23 19:00:00 37 8 Sudoeste 26 Sudoeste 0 -- -- 26
2019-07-23 18:00:00 36.4 13 Noroeste 31 Noroeste 0 -- -- 29
2019-07-23 17:00:00 37.1 8 Noroeste 24 Oeste 0 -- -- 27
2019-07-23 16:00:00 36.4 6 Sudeste 17 Sudeste 0 -- -- 28
2019-07-23 15:00:00 35.6 10 Sudoeste 31 Sur 0 -- -- 29
2019-07-23 14:00:00 34 11 Sudoeste 39 Sudoeste 0 -- -- 30
2019-07-23 13:00:00 32.7 15 Oeste 24 Oeste 0 -- -- 32
2019-07-23 12:00:00 30.8 9 Sudoeste 24 Sudoeste 0 -- -- 33
2019-07-23 11:00:00 29.4 8 Sudoeste 20 Sudoeste 0 -- -- 37
2019-07-23 10:00:00 27.1 8 Sudeste 13 Sudoeste 0 -- -- 39
2019-07-23 09:00:00 22.9 5 Sur 14 Sudeste 0 -- -- 46
2019-07-23 08:00:00 22.5 7 Sudeste 10 Sudeste 0 -- -- 47
2019-07-23 07:00:00 21.9 6 Sur 13 Sudeste 0 -- -- 47
2019-07-23 06:00:00 23.1 13 Sudeste 19 Sudeste 0 -- -- 44
2019-07-23 05:00:00 23.3 8 Sur 12 Sur 0 -- -- 44
2019-07-23 04:00:00 25.1 5 Este 14 Sudeste 0 -- -- 39
2019-07-23 03:00:00 26.9 5 Oeste 24 Sudoeste 0 -- -- 34
2019-07-23 02:00:00 28 13 Sudoeste 25 Sudoeste 0 -- -- 33
2019-07-23 01:00:00 28.7 3 Sudoeste 15 Noroeste 0 -- -- 33
2019-07-23 00:00:00 30.9 8 Noroeste 18 Noroeste 0 -- -- 29
2019-07-22 23:00:00 33.2 10 Sudoeste 16 Sudoeste 0 -- -- 24
2019-07-22 22:00:00 33.9 5 Sudoeste 17 Noroeste 0 -- -- 23
2019-07-22 21:00:00 36.2 14 Noroeste 26 Noroeste 0 -- -- 20
2019-07-22 20:00:00 38 11 Oeste 33 Oeste 0 -- -- 21
2019-07-22 19:00:00 38.1 14 Sudeste 26 Sur 0 -- -- 24
2019-07-22 18:00:00 39.3 10 Sur 23 Norte 0 -- -- 19
2019-07-22 17:00:00 38.9 8 Noroeste 20 Norte 0 -- -- 19
2019-07-22 16:00:00 38.1 12 Noroeste 31 Noroeste 0 -- -- 20
2019-07-22 15:00:00 36.9 11 Noroeste 25 Noroeste 0 -- -- 20
2019-07-22 14:00:00 36 7 Norte 15 Norte 0 -- -- 20
2019-07-22 13:00:00 34.6 8 Noroeste 16 Norte 0 -- -- 21
2019-07-22 12:00:00 32.5 8 Noroeste 14 Noroeste 0 -- -- 24
2019-07-22 11:00:00 30.4 9 Norte 14 Norte 0 -- -- 29
2019-07-22 10:00:00 28.4 3 Este 10 Sur 0 -- -- 37
2019-07-22 09:00:00 24.4 9 Sur 19 Sudeste 0 -- -- 47
2019-07-22 08:00:00 23.2 13 Sudeste 17 Sudeste 0 -- -- 44
2019-07-22 07:00:00 22.5 9 Sudeste 16 Sudeste 0 -- -- 41
2019-07-22 06:00:00 23.6 12 Sudeste 16 Sudeste 0 -- -- 40
2019-07-22 05:00:00 22.4 6 Sur 10 Sur 0 -- -- 51
2019-07-22 04:00:00 22.2 5 Sur 8 Sudeste 0 -- -- 52
2019-07-22 03:00:00 23.2 5 Sudeste 7 Sudeste 0 -- -- 49
2019-07-22 02:00:00 25 7 Noroeste 10 Noroeste 0 -- -- 45
2019-07-22 01:00:00 24.1 5 Noroeste 6 Noroeste 0 -- -- 34
2019-07-22 00:00:00 25.2 3 Sudeste 6 Sudeste 0 -- -- 32
2019-07-21 23:00:00 27.6 3 Sudeste 5 Norte 0 -- -- 28
2019-07-21 22:00:00 30.9 3 Norte 10 Noroeste 0 -- -- 22
2019-07-21 21:00:00 34.5 10 Noroeste 29 Noroeste 0 -- -- 18
2019-07-21 20:00:00 36.5 19 Noroeste 28 Noroeste 0 -- -- 16
2019-07-21 19:00:00 37.5 15 Norte 33 Norte 0 -- -- 15
2019-07-21 18:00:00 37.8 18 Noroeste 28 Norte 0 -- -- 16
2019-07-21 17:00:00 37.3 16 Norte 30 Norte 0 -- -- 21
2019-07-21 16:00:00 36.7 17 Noroeste 28 Norte 0 -- -- 23
2019-07-21 15:00:00 36.3 14 Noroeste 22 Noroeste 0 -- -- 21
2019-07-21 14:00:00 34.9 10 Noroeste 20 Norte 0 -- -- 24
2019-07-21 13:00:00 32.6 10 Noroeste 20 Noroeste 0 -- -- 28
2019-07-21 12:00:00 31.1 8 Noroeste 12 Oeste 0 -- -- 29
2019-07-21 11:00:00 27.2 8 Noroeste 13 Noroeste 0 -- -- 38
2019-07-21 10:00:00 25.8 2 Este 10 Sudeste 0 -- -- 41
2019-07-21 09:00:00 22 7 Sudeste 12 Sudeste 0 -- -- 52
2019-07-21 08:00:00 19.3 5 Sur 7 Sur 0 -- -- 57
2019-07-21 07:00:00 19.6 5 Sur 7 Sur 0 -- -- 55
2019-07-21 06:00:00 20.8 6 Sudeste 10 Este 0 -- -- 51
2019-07-21 05:00:00 20.3 5 Sur 7 Sur 0 -- -- 43
2019-07-21 04:00:00 21.1 6 Sur 9 Sur 0 -- -- 43
2019-07-21 03:00:00 22.1 3 Sur 8 Noroeste 0 -- -- 46
2019-07-21 02:00:00 23.8 7 Noroeste 10 Noroeste 0 -- -- 42
2019-07-21 01:00:00 25.6 7 Noroeste 15 Noroeste 0 -- -- 41
2019-07-21 00:00:00 27.7 15 Norte 28 Noroeste 0 -- -- 40
2019-07-20 23:00:00 29.8 17 Noroeste 24 Noroeste 0 -- -- 34
2019-07-20 22:00:00 31.6 10 Noroeste 23 Noroeste 0 -- -- 24
2019-07-20 21:00:00 34.5 16 Noroeste 27 Noroeste 0 -- -- 21
2019-07-20 20:00:00 35.8 19 Noroeste 33 Noroeste 0 -- -- 20
2019-07-20 19:00:00 36.4 21 Noroeste 35 Norte 0 -- -- 20
2019-07-20 18:00:00 37.1 17 Norte 30 Noroeste 0 -- -- 20
2019-07-20 17:00:00 37 16 Norte 31 Norte 0 -- -- 20
2019-07-20 16:00:00 36.6 17 Noroeste 26 Noroeste 0 -- -- 22
2019-07-20 15:00:00 35.3 12 Norte 24 Noroeste 0 -- -- 26
2019-07-20 14:00:00 34.1 10 Noroeste 19 Noroeste 0 -- -- 27
2019-07-20 13:00:00 32.6 10 Norte 19 Norte 0 -- -- 29
2019-07-20 12:00:00 30.1 8 Norte 15 Norte 0 -- -- 35
2019-07-20 11:00:00 27 7 Noroeste 13 Noroeste 0 -- -- 42
2019-07-20 10:00:00 24.2 9 Noroeste 12 Noroeste 0 -- -- 48
2019-07-20 09:00:00 22.7 7 Noroeste 14 Este 0 -- -- 51
2019-07-20 08:00:00 22 3 Este 13 Este 0 -- -- 55
2019-07-20 07:00:00 21.2 3 Sudeste 7 Sudeste 0 -- -- 54
2019-07-20 06:00:00 21.8 2 Sudeste 5 Sudeste 0 -- -- 52
2019-07-20 05:00:00 22.2 0 Calma 8 Sur 0 -- -- 49
2019-07-20 04:00:00 22.6 7 Sudeste 9 Sur 0 -- -- 47
2019-07-20 03:00:00 23.4 5 Sudeste 7 Sudeste 0 -- -- 45
2019-07-20 02:00:00 25.3 0 Calma 8 Oeste 0 -- -- 42
2019-07-20 01:00:00 27 5 Norte 28 Norte 0 -- -- 39
2019-07-20 00:00:00 28.8 17 Noroeste 30 Norte 0 -- -- 38
2019-07-19 23:00:00 30.9 22 Noroeste 33 Noroeste 0 -- -- 35
2019-07-19 22:00:00 32.5 8 Noroeste 18 Noroeste 0 -- -- 27
2019-07-19 21:00:00 35.8 10 Noroeste 26 Norte 0 -- -- 24
2019-07-19 20:00:00 37 16 Noroeste 28 Norte 0 -- -- 23
2019-07-19 19:00:00 38.2 11 Noroeste 23 Noroeste 0 -- -- 22
2019-07-19 18:00:00 39 6 Sudeste 26 Sudeste 0 -- -- 19
2019-07-19 17:00:00 38.7 10 Sudoeste 32 Sudeste 0 -- -- 19
2019-07-19 16:00:00 38.2 12 Este 27 Sudeste 0 -- -- 20
2019-07-19 15:00:00 37.4 12 Sur 26 Sur 0 -- -- 22
2019-07-19 14:00:00 36.5 11 Sudeste 25 Este 0 -- -- 23
2019-07-19 13:00:00 35.6 7 Sur 17 Sudeste 0 -- -- 24
2019-07-19 12:00:00 34.3 7 Este 18 Sudeste 0 -- -- 25
2019-07-19 11:00:00 31.8 9 Sudeste 15 Sudeste 0 -- -- 29
2019-07-19 10:00:00 28.5 6 Sudeste 10 Sudeste 0 -- -- 31
2019-07-19 09:00:00 23.7 8 Sur 13 Sur 0 -- -- 44
2019-07-19 08:00:00 20.1 8 Sur 13 Sudeste 0 -- -- 51
2019-07-19 07:00:00 19.5 8 Sur 12 Sudeste 0 -- -- 49
2019-07-19 06:00:00 19.8 8 Sudeste 9 Sur 0 -- -- 47
2019-07-19 05:00:00 19.8 5 Sudeste 9 Sur 0 -- -- 51
2019-07-19 04:00:00 20.5 6 Sudeste 7 Sudeste 0 -- -- 50
2019-07-19 03:00:00 21.1 2 Sudeste 5 Noroeste 0 -- -- 49
2019-07-19 02:00:00 22.9 0 Calma 8 Noroeste 0 -- -- 44
2019-07-19 01:00:00 24.8 6 Noroeste 10 Sur 0 -- -- 40
2019-07-19 00:00:00 25.4 5 Noroeste 7 Noroeste 0 -- -- 38
2019-07-18 23:00:00 27.7 0 Calma 4 Noroeste 0 -- -- 35
2019-07-18 22:00:00 30.8 3 Noroeste 18 Noroeste 0 -- -- 30
2019-07-18 21:00:00 33.8 10 Noroeste 20 Norte 0 -- -- 26
2019-07-18 20:00:00 34.8 8 Norte 21 Norte 0 -- -- 25
2019-07-18 19:00:00 35.3 9 Oeste 23 Noroeste 0 -- -- 25
2019-07-18 18:00:00 35.2 6 Noroeste 23 Norte 0 -- -- 26
2019-07-18 17:00:00 35.1 15 Noroeste 29 Noroeste 0 -- -- 25
2019-07-18 16:00:00 34.5 14 Noroeste 23 Noroeste 0 -- -- 29
2019-07-18 15:00:00 33.4 5 Oeste 19 Noroeste 0 -- -- 33
2019-07-18 14:00:00 32.2 5 Nordeste 20 Noroeste 0 -- -- 37
2019-07-18 13:00:00 30.5 6 Noroeste 16 Noroeste 0 -- -- 40
2019-07-18 12:00:00 28.7 8 Norte 13 Norte 0 -- -- 45
2019-07-18 11:00:00 26.1 6 Norte 10 Norte 0 -- -- 51
2019-07-18 10:00:00 23.6 3 Este 7 Oeste 0 -- -- 58
2019-07-18 09:00:00 20.6 0 Calma 8 Este 0 -- -- 68
2019-07-18 08:00:00 18.4 5 Sudeste 12 Sudeste 0 -- -- 76
2019-07-18 07:00:00 17.8 4 Sudeste 9 Sudeste 0 -- -- 77
2019-07-18 06:00:00 18.5 6 Este 15 Sudeste 0 -- -- 75
2019-07-18 05:00:00 19 4 Sudeste 10 Sur 0 -- -- 73
2019-07-18 04:00:00 20 5 Este 17 Sudeste 0 -- -- 70
2019-07-18 03:00:00 19.5 6 Sudeste 12 Sudeste 0 -- -- 71
2019-07-18 02:00:00 21 0 Calma 7 Noroeste 0 -- -- 65
2019-07-18 01:00:00 22.8 8 Noroeste 20 Noroeste 0 -- -- 61
2019-07-18 00:00:00 22.9 3 Oeste 6 Norte 0 -- -- 61